Time;durP1;ratioP1;P1;durP2;ratioP2;P2;SDS_P1;SDS_P2;PMS_P1;PMS_P2;Temp;Humidity;BMP_temperature;BMP_pressure;BME280_temperature;BME280_humidity;BME280_pressure;Samples;Min_cycle;Max_cycle;Signal;HPM_P1;HPM_P2
2021/04/05 00:00:24;;;;;;;1.40;0.20;;;6.60;99.90;;;;;;5069537;28;20189;-59
2021/04/05 00:02:50;;;;;;;1.48;0.20;;;6.50;99.90;;;;;;5068075;28;20544;-59
2021/04/05 00:05:20;;;;;;;1.50;0.20;;;6.50;99.90;;;;;;5073489;28;20319;-58
2021/04/05 00:07:48;;;;;;;1.42;0.20;;;6.50;99.90;;;;;;5068192;28;20204;-58
2021/04/05 00:10:18;;;;;;;1.40;0.20;;;6.60;99.90;;;;;;5064824;28;20180;-57
2021/04/05 00:12:44;;;;;;;1.40;0.20;;;6.60;99.90;;;;;;5072457;28;20176;-58
2021/04/05 00:15:10;;;;;;;1.40;0.20;;;6.70;99.90;;;;;;5068210;28;20207;-58
2021/04/05 00:17:37;;;;;;;1.42;0.20;;;6.70;99.90;;;;;;5050495;28;20200;-59
2021/04/05 00:20:15;;;;;;;1.60;0.52;;;6.70;99.90;;;;;;5073145;28;20189;-58
2021/04/05 00:22:43;;;;;;;1.40;0.20;;;6.70;99.90;;;;;;5067363;28;20208;-58
2021/04/05 00:25:09;;;;;;;1.48;0.20;;;6.60;99.90;;;;;;5052004;28;20215;-58
2021/04/05 00:27:35;;;;;;;9.27;8.52;;;6.60;99.90;;;;;;5074609;28;20193;-58
2021/04/05 00:30:01;;;;;;;1.60;0.27;;;6.50;99.90;;;;;;5070677;28;20250;-58
2021/04/05 00:32:26;;;;;;;1.50;0.20;;;6.50;99.90;;;;;;5075675;28;20506;-58
2021/04/05 00:34:52;;;;;;;1.40;0.20;;;6.50;99.90;;;;;;5077200;28;20206;-58
2021/04/05 00:37:18;;;;;;;1.42;0.20;;;6.60;99.90;;;;;;5069442;28;20212;-58
2021/04/05 00:39:43;;;;;;;1.50;0.20;;;6.60;99.90;;;;;;5069010;28;20263;-58
2021/04/05 00:42:09;;;;;;;1.47;0.20;;;6.60;99.90;;;;;;5074283;28;20192;-57
2021/04/05 00:44:35;;;;;;;1.48;0.20;;;6.60;99.90;;;;;;5068021;28;20212;-58
2021/04/05 00:47:02;;;;;;;1.50;0.43;;;6.60;99.90;;;;;;5072976;28;20250;-58
2021/04/05 00:49:28;;;;;;;1.42;0.20;;;6.60;99.90;;;;;;5065487;28;20780;-57
2021/04/05 00:51:53;;;;;;;1.40;0.20;;;6.50;99.90;;;;;;5070541;28;20234;-58
2021/04/05 00:54:19;;;;;;;3.23;1.47;;;6.50;99.90;;;;;;5053102;28;20192;-57
2021/04/05 00:56:45;;;;;;;1.50;0.20;;;6.40;99.90;;;;;;5068059;28;20288;-57
2021/04/05 00:59:10;;;;;;;5.43;3.07;;;6.30;99.90;;;;;;5069767;28;20558;-58
2021/04/05 01:01:36;;;;;;;1.40;0.20;;;6.10;99.90;;;;;;5071697;28;20177;-57
2021/04/05 01:04:02;;;;;;;1.50;0.20;;;6.00;99.90;;;;;;5068939;28;20181;-58
2021/04/05 01:06:32;;;;;;;1.70;0.67;;;6.00;99.90;;;;;;5071685;28;20238;-59
2021/04/05 01:08:57;;;;;;;1.48;0.32;;;6.00;99.90;;;;;;5079708;28;20543;-58
2021/04/05 01:11:29;;;;;;;3.03;2.73;;;6.00;99.90;;;;;;5065708;28;20180;-59
2021/04/05 01:13:55;;;;;;;1.50;0.30;;;6.00;99.90;;;;;;5071996;28;20276;-58
2021/04/05 01:16:23;;;;;;;1.42;0.20;;;6.00;99.90;;;;;;5069737;28;20239;-58
2021/04/05 01:18:48;;;;;;;1.88;0.80;;;6.10;99.90;;;;;;5066383;28;20184;-58
2021/04/05 01:21:14;;;;;;;2.20;1.43;;;6.10;99.90;;;;;;5070144;28;20669;-58
2021/04/05 01:23:40;;;;;;;3.80;2.37;;;6.10;99.90;;;;;;5071721;28;20262;-58
2021/04/05 01:26:05;;;;;;;1.90;1.37;;;6.00;99.90;;;;;;5054483;28;20261;-58
2021/04/05 01:28:31;;;;;;;1.47;0.20;;;6.00;99.90;;;;;;5077766;28;20184;-58
2021/04/05 01:30:58;;;;;;;2.17;1.20;;;5.90;99.90;;;;;;5077859;28;20200;-58
2021/04/05 01:33:30;;;;;;;1.48;0.20;;;5.90;99.90;;;;;;5062513;28;20184;-58
2021/04/05 01:36:04;;;;;;;3.22;1.83;;;6.00;99.90;;;;;;5082109;28;20192;-58
2021/04/05 01:38:39;;;;;;;5.07;1.67;;;6.00;99.90;;;;;;5071136;28;20187;-58
2021/04/05 01:41:13;;;;;;;4.55;2.95;;;6.00;99.90;;;;;;5070235;28;20307;-58
2021/04/05 01:43:39;;;;;;;1.42;0.20;;;6.00;99.90;;;;;;5077927;28;20185;-58
2021/04/05 01:46:06;;;;;;;5.28;2.75;;;6.00;99.90;;;;;;5074657;28;20223;-58
2021/04/05 01:48:33;;;;;;;10.45;6.88;;;6.00;99.90;;;;;;5070402;28;20184;-59
2021/04/05 01:51:02;;;;;;;12.63;7.47;;;6.00;99.90;;;;;;5072525;28;20307;-60
2021/04/05 01:53:28;;;;;;;1.85;0.68;;;5.90;99.90;;;;;;5073730;28;20187;-58
2021/04/05 01:56:00;;;;;;;3.78;2.20;;;5.90;99.90;;;;;;5071565;28;20318;-58
2021/04/05 01:58:27;;;;;;;2.15;1.40;;;6.00;99.90;;;;;;5060913;28;20181;-57
2021/04/05 02:00:54;;;;;;;1.45;0.20;;;5.90;99.90;;;;;;5075254;28;20225;-58
2021/04/05 02:03:20;;;;;;;5.93;3.25;;;6.00;99.90;;;;;;5072986;28;20196;-58
2021/04/05 02:06:00;;;;;;;2.13;0.93;;;5.90;99.90;;;;;;5073932;28;20206;-57
2021/04/05 02:08:28;;;;;;;3.50;1.85;;;5.90;99.90;;;;;;5075387;28;20792;-58
2021/04/05 02:10:56;;;;;;;1.45;0.20;;;5.90;99.90;;;;;;5064268;28;20182;-58
2021/04/05 02:13:22;;;;;;;2.33;1.60;;;5.90;99.90;;;;;;5080102;28;20180;-58
2021/04/05 02:15:50;;;;;;;2.03;1.08;;;5.90;99.90;;;;;;5074521;28;20230;-58
2021/04/05 02:18:16;;;;;;;7.63;6.20;;;5.90;99.90;;;;;;5074658;28;20557;-57
2021/04/05 02:20:43;;;;;;;1.42;0.20;;;5.80;99.90;;;;;;5080620;28;20722;-58
2021/04/05 02:23:09;;;;;;;4.60;3.78;;;5.80;99.90;;;;;;5072786;28;20632;-58
2021/04/05 02:25:36;;;;;;;5.23;2.80;;;5.80;99.90;;;;;;5071544;28;20215;-58
2021/04/05 02:28:04;;;;;;;3.03;2.38;;;5.70;99.90;;;;;;5073089;28;20425;-58
2021/04/05 02:30:30;;;;;;;3.90;2.17;;;5.80;99.90;;;;;;5070156;28;20177;-58
2021/04/05 02:33:02;;;;;;;5.00;2.35;;;5.80;99.90;;;;;;5075411;28;20534;-58
2021/04/05 02:35:31;;;;;;;12.05;4.72;;;5.80;99.90;;;;;;5078876;28;20189;-58
2021/04/05 02:37:59;;;;;;;10.95;6.30;;;5.80;99.90;;;;;;5071794;28;20204;-59
2021/04/05 02:40:26;;;;;;;5.43;4.90;;;5.70;99.90;;;;;;5068207;28;20188;-56
2021/04/05 02:42:54;;;;;;;2.55;1.88;;;5.70;99.90;;;;;;5073008;28;20187;-56
2021/04/05 02:45:21;;;;;;;7.70;4.90;;;5.80;99.90;;;;;;5067491;28;20208;-58
2021/04/05 02:47:49;;;;;;;1.83;0.50;;;5.90;99.90;;;;;;5073886;28;20639;-58
2021/04/05 02:50:15;;;;;;;1.48;0.20;;;5.80;99.90;;;;;;5076320;28;20206;-57
2021/04/05 02:52:42;;;;;;;9.35;5.30;;;5.80;99.90;;;;;;5071121;28;20275;-58
2021/04/05 02:55:12;;;;;;;5.78;3.78;;;5.70;99.90;;;;;;5072929;28;20204;-56
2021/04/05 02:57:39;;;;;;;10.07;5.97;;;5.80;99.90;;;;;;5056452;28;20201;-56
2021/04/05 03:00:08;;;;;;;15.93;5.25;;;5.70;99.90;;;;;;5069128;28;20226;-57
2021/04/05 03:02:34;;;;;;;6.20;2.25;;;5.70;99.90;;;;;;5070650;28;20211;-57
2021/04/05 03:05:03;;;;;;;3.15;2.40;;;5.70;99.90;;;;;;5071860;28;20213;-58
2021/04/05 03:07:28;;;;;;;9.65;6.30;;;5.80;99.90;;;;;;5069783;28;20205;-58
2021/04/05 03:09:54;;;;;;;1.50;0.20;;;5.80;99.90;;;;;;5075430;28;20183;-57
2021/04/05 03:12:20;;;;;;;1.60;0.50;;;5.70;99.90;;;;;;5065705;28;20212;-58
2021/04/05 03:14:46;;;;;;;1.48;0.20;;;5.80;99.90;;;;;;5074866;28;20185;-58
2021/04/05 03:17:13;;;;;;;1.47;0.20;;;5.80;99.90;;;;;;5052979;28;20205;-58
2021/04/05 03:19:41;;;;;;;8.10;4.53;;;6.10;99.90;;;;;;5069848;28;20189;-58
2021/04/05 03:22:08;;;;;;;13.85;3.58;;;5.90;99.90;;;;;;5072495;28;20200;-58
2021/04/05 03:24:37;;;;;;;2.15;1.10;;;6.00;99.90;;;;;;5071255;28;20738;-58
2021/04/05 03:27:04;;;;;;;5.80;3.10;;;6.00;99.90;;;;;;5070944;28;20243;-58
2021/04/05 03:29:33;;;;;;;6.38;4.10;;;6.00;99.90;;;;;;5065716;28;20177;-57
2021/04/05 03:32:00;;;;;;;1.70;0.70;;;6.00;99.90;;;;;;5073474;28;20184;-57
2021/04/05 03:34:28;;;;;;;1.50;0.30;;;6.10;99.90;;;;;;5067318;28;20647;-58
2021/04/05 03:37:03;;;;;;;2.50;0.55;;;6.20;99.90;;;;;;5068743;28;20201;-58
2021/04/05 03:39:29;;;;;;;14.68;6.85;;;6.30;99.90;;;;;;5075395;28;20191;-58
2021/04/05 03:42:11;;;;;;;8.67;5.33;;;6.40;99.90;;;;;;5069211;28;20181;-58
2021/04/05 03:44:58;;;;;;;3.97;1.85;;;6.40;99.90;;;;;;5076452;28;20469;-58
2021/04/05 03:47:36;;;;;;;5.03;3.05;;;6.40;99.90;;;;;;5078658;28;20238;-58
2021/04/05 03:50:12;;;;;;;1.45;0.20;;;6.40;99.90;;;;;;5070682;28;20199;-58
2021/04/05 03:53:10;;;;;;;1.88;0.88;;;6.40;99.90;;;;;;5068360;28;20192;-58
2021/04/05 03:55:38;;;;;;;1.50;0.20;;;6.50;99.90;;;;;;5073442;28;20323;-58
2021/04/05 03:58:04;;;;;;;3.55;1.13;;;6.60;99.90;;;;;;5069648;28;20181;-58
2021/04/05 04:00:31;;;;;;;1.45;0.20;;;6.60;99.90;;;;;;5072529;28;20253;-58
2021/04/05 04:03:00;;;;;;;1.50;0.20;;;6.60;99.90;;;;;;5071120;28;20273;-58
2021/04/05 04:08:12;;;;;;;8.13;2.15;;;6.70;99.90;;;;;;5068445;28;20194;-57
2021/04/05 04:10:39;;;;;;;4.55;1.80;;;6.70;99.90;;;;;;5073215;28;20268;-57
2021/04/05 04:13:10;;;;;;;5.28;4.00;;;6.80;99.90;;;;;;5074197;28;20176;-58
2021/04/05 04:15:36;;;;;;;2.60;1.35;;;6.80;99.90;;;;;;5069748;28;20258;-57
2021/04/05 04:18:03;;;;;;;6.83;3.70;;;6.80;99.90;;;;;;5086559;22;20624;-59
2021/04/05 04:20:30;;;;;;;1.50;0.20;;;6.80;99.90;;;;;;5067579;28;20453;-59
2021/04/05 04:22:57;;;;;;;4.82;3.20;;;6.80;99.90;;;;;;5071592;28;20702;-59
2021/04/05 04:25:23;;;;;;;1.50;0.20;;;6.80;99.90;;;;;;5074119;28;20204;-60
2021/04/05 04:27:49;;;;;;;7.57;2.58;;;6.80;99.90;;;;;;5076623;28;20207;-59
2021/04/05 04:30:33;;;;;;;3.97;2.90;;;6.80;99.90;;;;;;5079165;28;20172;-60
2021/04/05 04:33:06;;;;;;;2.70;1.85;;;6.90;99.90;;;;;;5074048;28;20435;-60
2021/04/05 04:35:33;;;;;;;3.25;2.30;;;6.80;99.90;;;;;;5073962;28;20184;-59
2021/04/05 04:38:00;;;;;;;1.48;0.20;;;6.90;99.90;;;;;;5075125;28;20223;-60
2021/04/05 04:40:27;;;;;;;1.50;0.30;;;6.90;99.90;;;;;;5079634;28;20186;-60
2021/04/05 04:42:56;;;;;;;9.40;5.10;;;6.80;99.90;;;;;;5070931;28;20176;-59
2021/04/05 04:45:23;;;;;;;6.75;2.25;;;6.80;99.90;;;;;;5071631;28;20613;-59
2021/04/05 04:47:51;;;;;;;1.50;0.20;;;6.90;99.90;;;;;;5084488;28;20237;-60
2021/04/05 04:50:18;;;;;;;1.65;0.43;;;6.90;99.90;;;;;;5067698;28;20201;-59
2021/04/05 04:52:43;;;;;;;8.57;3.13;;;6.90;99.90;;;;;;5080668;28;20186;-60
2021/04/05 04:55:10;;;;;;;6.40;2.77;;;6.80;99.90;;;;;;5087258;28;20168;-59
2021/04/05 04:57:36;;;;;;;8.35;7.25;;;6.80;99.90;;;;;;5070751;28;20218;-61
2021/04/05 05:00:04;;;;;;;1.50;0.20;;;6.80;99.90;;;;;;5081095;28;20309;-60
2021/04/05 05:02:31;;;;;;;4.55;2.53;;;6.90;99.90;;;;;;5064575;28;20191;-60
2021/04/05 05:04:58;;;;;;;6.18;4.05;;;6.80;99.90;;;;;;5061537;28;20311;-60
2021/04/05 05:07:26;;;;;;;6.65;2.53;;;6.80;99.90;;;;;;5079956;28;20234;-60
2021/04/05 05:09:52;;;;;;;1.50;0.20;;;6.80;99.90;;;;;;5082910;28;20172;-60
2021/04/05 05:12:18;;;;;;;4.97;2.38;;;6.80;99.90;;;;;;5076728;28;20259;-59
2021/04/05 05:14:44;;;;;;;10.20;5.57;;;6.70;99.90;;;;;;5078489;28;20470;-60
2021/04/05 05:17:10;;;;;;;1.60;0.30;;;6.70;99.90;;;;;;5079340;28;20499;-59
2021/04/05 05:19:37;;;;;;;2.35;0.88;;;6.70;99.90;;;;;;5076847;28;20432;-59
2021/04/05 05:22:05;;;;;;;3.38;1.17;;;6.80;99.90;;;;;;5068779;28;20212;-60
2021/04/05 05:24:32;;;;;;;1.55;0.40;;;6.80;99.90;;;;;;5074655;28;20299;-60
2021/04/05 05:26:58;;;;;;;1.50;0.35;;;6.80;99.90;;;;;;5075937;28;20205;-59
2021/04/05 05:29:27;;;;;;;3.22;1.40;;;6.70;99.90;;;;;;5072335;28;20651;-59
2021/04/05 05:31:52;;;;;;;6.10;3.50;;;6.80;99.90;;;;;;5078471;28;20271;-59
2021/04/05 05:34:22;;;;;;;1.50;0.20;;;6.70;99.90;;;;;;5064885;28;20272;-60
2021/04/05 05:36:48;;;;;;;7.18;4.05;;;6.70;99.90;;;;;;5078216;28;20242;-59
2021/04/05 05:39:16;;;;;;;6.20;3.00;;;6.80;99.90;;;;;;5072457;28;20204;-60
2021/04/05 05:42:06;;;;;;;8.40;2.47;;;6.70;99.90;;;;;;5079974;28;20185;-59
2021/04/05 05:44:38;;;;;;;4.50;2.92;;;6.70;99.90;;;;;;5073072;28;20261;-60
2021/04/05 05:47:09;;;;;;;28.02;7.22;;;6.80;99.90;;;;;;5071545;28;20219;-60
2021/04/05 05:50:08;;;;;;;3.65;1.75;;;6.80;99.90;;;;;;5077326;28;20720;-60
2021/04/05 05:52:49;;;;;;;1.50;0.20;;;6.70;99.90;;;;;;5077422;28;20180;-60
2021/04/05 05:55:38;;;;;;;7.95;5.43;;;6.80;99.90;;;;;;5084539;28;20274;-60
2021/04/05 05:58:44;;;;;;;3.95;0.82;;;6.80;99.90;;;;;;5069845;28;20204;-60
2021/04/05 06:01:35;;;;;;;2.45;2.05;;;6.80;99.90;;;;;;5072890;28;20192;-60
2021/04/05 06:04:06;;;;;;;7.07;4.00;;;6.90;99.90;;;;;;5081418;28;20658;-60
2021/04/05 06:06:52;;;;;;;8.65;4.22;;;6.90;99.90;;;;;;5083039;28;20212;-60
2021/04/05 06:09:31;;;;;;;3.95;3.65;;;6.80;99.90;;;;;;5070287;28;20666;-60
2021/04/05 06:12:11;;;;;;;5.32;2.47;;;6.90;99.90;;;;;;5076924;28;20184;-60
2021/04/05 06:15:05;;;;;;;10.35;3.65;;;6.90;99.90;;;;;;5090204;28;20185;-59
2021/04/05 06:17:36;;;;;;;2.35;1.30;;;6.90;99.90;;;;;;5077768;28;20219;-60
2021/04/05 06:20:23;;;;;;;3.15;2.80;;;6.90;99.90;;;;;;5077387;28;20256;-60
2021/04/05 06:23:26;;;;;;;2.05;1.58;;;6.90;99.90;;;;;;5080442;28;20184;-60
2021/04/05 06:25:54;;;;;;;1.60;0.50;;;6.90;99.90;;;;;;5081207;28;20212;-60
2021/04/05 06:28:48;;;;;;;3.20;1.67;;;6.90;99.90;;;;;;5076880;28;20340;-60
2021/04/05 06:31:35;;;;;;;5.63;1.10;;;6.90;99.90;;;;;;5077255;28;20170;-60
2021/04/05 06:34:30;;;;;;;6.57;5.43;;;7.00;99.90;;;;;;5073797;28;20701;-60
2021/04/05 06:37:07;;;;;;;7.38;3.15;;;6.90;99.90;;;;;;5033491;28;20686;-60
2021/04/05 06:39:36;;;;;;;9.77;6.90;;;6.90;99.90;;;;;;5077244;28;20179;-60
2021/04/05 06:42:39;;;;;;;2.50;0.93;;;6.90;99.90;;;;;;5080059;28;20251;-61
2021/04/05 06:45:29;;;;;;;7.15;2.53;;;6.90;99.90;;;;;;5077528;28;20211;-60
2021/04/05 06:48:13;;;;;;;3.83;2.15;;;6.90;99.90;;;;;;5081874;28;20279;-60
2021/04/05 06:51:10;;;;;;;5.80;2.95;;;7.00;99.90;;;;;;5074265;28;20532;-60
2021/04/05 06:53:48;;;;;;;20.77;9.43;;;7.00;99.90;;;;;;5071684;28;20192;-60
2021/04/05 06:56:44;;;;;;;1.50;0.20;;;7.00;99.90;;;;;;5055582;28;20189;-61
2021/04/05 06:59:47;;;;;;;10.15;6.57;;;7.10;99.90;;;;;;5082221;28;20190;-60
2021/04/05 07:02:37;;;;;;;5.10;2.35;;;7.10;99.90;;;;;;5075288;28;20740;-61
2021/04/05 07:05:33;;;;;;;15.30;8.80;;;7.10;99.90;;;;;;5069951;28;20346;-60
2021/04/05 07:08:01;;;;;;;1.50;0.30;;;7.20;99.90;;;;;;5085372;28;20211;-62
2021/04/05 07:10:31;;;;;;;3.88;2.85;;;7.20;99.90;;;;;;5074161;28;20191;-61
2021/04/05 07:13:06;;;;;;;16.30;9.52;;;7.20;99.90;;;;;;5074406;28;20200;-61
2021/04/05 07:15:42;;;;;;;1.60;0.45;;;7.20;99.90;;;;;;5078234;28;20303;-60
2021/04/05 07:18:45;;;;;;;7.18;4.40;;;7.30;99.90;;;;;;5072649;28;20208;-60
2021/04/05 07:21:16;;;;;;;1.50;0.20;;;7.20;99.90;;;;;;5074684;28;20220;-60
2021/04/05 07:24:19;;;;;;;7.82;3.38;;;7.30;99.90;;;;;;5057570;28;20216;-61
2021/04/05 07:26:50;;;;;;;15.55;8.38;;;7.30;99.90;;;;;;5079405;28;20426;-59
2021/04/05 07:29:26;;;;;;;22.08;11.95;;;7.30;99.90;;;;;;5074232;28;20544;-62
2021/04/05 07:32:18;;;;;;;1.60;0.57;;;7.30;99.90;;;;;;5072865;28;20238;-61
2021/04/05 07:35:04;;;;;;;4.00;3.70;;;7.40;99.90;;;;;;5053216;28;20199;-61
2021/04/05 07:37:43;;;;;;;10.27;5.40;;;7.40;99.90;;;;;;5088511;28;20321;-60
2021/04/05 07:40:47;;;;;;;10.98;6.05;;;7.30;99.90;;;;;;5072911;28;20269;-61
2021/04/05 07:43:44;;;;;;;1.50;0.20;;;7.30;99.90;;;;;;5071965;28;20184;-61
2021/04/05 07:46:38;;;;;;;9.70;5.97;;;7.40;99.90;;;;;;5075288;28;20204;-60
2021/04/05 07:49:21;;;;;;;10.20;5.78;;;7.40;99.90;;;;;;5076212;28;20188;-59
2021/04/05 07:52:06;;;;;;;15.73;9.20;;;7.50;99.90;;;;;;5076499;28;20182;-59
2021/04/05 07:54:38;;;;;;;4.70;3.28;;;7.50;99.90;;;;;;5073376;28;20182;-61
2021/04/05 07:57:35;;;;;;;1.50;0.20;;;7.50;99.90;;;;;;5075694;28;20255;-59
2021/04/05 08:00:17;;;;;;;14.60;7.97;;;7.60;99.90;;;;;;5086718;28;20172;-61
2021/04/05 08:03:17;;;;;;;15.68;8.88;;;7.50;99.90;;;;;;5075228;28;20184;-58
2021/04/05 08:06:06;;;;;;;3.08;0.63;;;7.40;99.90;;;;;;5077545;28;20608;-60
2021/04/05 08:08:47;;;;;;;13.27;6.82;;;7.50;99.90;;;;;;5077630;28;20197;-60
2021/04/05 08:11:24;;;;;;;12.68;7.95;;;7.50;99.90;;;;;;5085030;28;20195;-59
2021/04/05 08:14:14;;;;;;;7.00;3.05;;;7.40;99.90;;;;;;5080973;28;20202;-59
2021/04/05 08:17:05;;;;;;;18.50;7.75;;;7.50;99.90;;;;;;5066730;28;20563;-58
2021/04/05 08:20:06;;;;;;;7.85;5.65;;;7.60;99.90;;;;;;5056303;28;20187;-60
2021/04/05 08:22:32;;;;;;;6.47;4.90;;;7.60;99.90;;;;;;5070283;28;20183;-59
2021/04/05 08:25:25;;;;;;;11.43;7.33;;;7.60;99.90;;;;;;5074768;28;20207;-59
2021/04/05 08:28:09;;;;;;;15.85;10.52;;;7.60;99.90;;;;;;5069706;28;20205;-59
2021/04/05 08:30:54;;;;;;;21.90;11.98;;;7.60;99.90;;;;;;5081483;28;20195;-59
2021/04/05 08:33:27;;;;;;;15.65;8.25;;;7.60;99.90;;;;;;5082477;28;20180;-60
2021/04/05 08:36:06;;;;;;;10.40;6.43;;;7.60;99.90;;;;;;5073953;28;20539;-59
2021/04/05 08:38:46;;;;;;;12.25;7.10;;;7.70;99.90;;;;;;5077410;28;20249;-59
2021/04/05 08:41:18;;;;;;;15.13;8.98;;;7.80;99.90;;;;;;5076697;28;20527;-59
2021/04/05 08:44:06;;;;;;;4.43;1.85;;;7.80;99.90;;;;;;5070928;28;20536;-60
2021/04/05 08:46:34;;;;;;;5.18;3.35;;;7.90;99.90;;;;;;5022269;28;20229;-60
2021/04/05 08:49:05;;;;;;;10.65;7.90;;;7.90;99.90;;;;;;5081045;28;20202;-60
2021/04/05 08:51:35;;;;;;;17.10;9.68;;;7.90;99.90;;;;;;5069483;28;20554;-59
2021/04/05 08:54:06;;;;;;;6.97;2.97;;;7.90;99.90;;;;;;5067857;28;20337;-59
2021/04/05 08:56:45;;;;;;;21.10;10.93;;;7.90;99.90;;;;;;5069872;28;20191;-59
2021/04/05 08:59:16;;;;;;;17.02;7.53;;;8.00;99.90;;;;;;5080208;28;20212;-60
2021/04/05 09:01:54;;;;;;;2.78;1.10;;;7.90;99.90;;;;;;5070285;28;20177;-59
2021/04/05 09:04:24;;;;;;;14.65;8.93;;;8.10;99.90;;;;;;5057925;28;20216;-59
2021/04/05 09:07:14;;;;;;;10.23;6.05;;;8.10;99.90;;;;;;5078084;28;20271;-59
2021/04/05 09:09:43;;;;;;;12.63;8.03;;;8.10;99.90;;;;;;5066759;28;20182;-59
2021/04/05 09:12:11;;;;;;;1.50;0.20;;;8.10;99.90;;;;;;5074135;28;20948;-59
2021/04/05 09:15:18;;;;;;;4.80;2.07;;;8.10;99.90;;;;;;5071889;28;20177;-59
2021/04/05 09:18:08;;;;;;;13.75;6.28;;;8.10;99.90;;;;;;5076556;28;20544;-59
2021/04/05 09:20:55;;;;;;;13.50;8.77;;;8.10;99.90;;;;;;5071074;28;20647;-60
2021/04/05 09:23:58;;;;;;;7.50;4.37;;;8.10;99.90;;;;;;5076586;28;20250;-59
2021/04/05 09:26:45;;;;;;;10.70;5.97;;;8.10;99.90;;;;;;5075223;28;20466;-59
2021/04/05 09:29:20;;;;;;;2.67;1.07;;;8.10;99.90;;;;;;5067524;28;20256;-60
2021/04/05 09:32:09;;;;;;;9.20;5.80;;;8.20;99.90;;;;;;5072192;28;20423;-59
2021/04/05 09:35:12;;;;;;;13.20;10.10;;;8.30;99.90;;;;;;5072191;28;20430;-60
2021/04/05 09:37:52;;;;;;;14.60;10.17;;;8.20;99.90;;;;;;5082748;28;20519;-59
2021/04/05 09:40:34;;;;;;;2.35;0.90;;;8.20;99.90;;;;;;5079849;28;20513;-59
2021/04/05 09:43:34;;;;;;;7.57;2.97;;;8.20;99.90;;;;;;5051401;28;20180;-59
2021/04/05 09:46:44;;;;;;;17.40;10.38;;;8.20;99.90;;;;;;5080563;28;20459;-59
2021/04/05 09:49:43;;;;;;;17.63;9.97;;;8.10;99.90;;;;;;5080341;28;20267;-60
2021/04/05 09:52:46;;;;;;;12.05;7.03;;;8.10;99.90;;;;;;5083162;28;20450;-59
2021/04/05 09:55:14;;;;;;;5.50;2.47;;;8.10;99.90;;;;;;5078390;28;20188;-59
2021/04/05 09:58:03;;;;;;;9.93;6.63;;;8.10;99.90;;;;;;5090719;28;20960;-60
2021/04/05 10:00:29;;;;;;;7.63;4.05;;;8.10;99.90;;;;;;5080224;28;20233;-58
2021/04/05 10:03:07;;;;;;;1.50;0.20;;;8.10;99.90;;;;;;5075181;28;20188;-60
2021/04/05 10:05:43;;;;;;;22.67;11.10;;;8.10;99.90;;;;;;5089604;28;20466;-60
2021/04/05 10:08:21;;;;;;;4.70;3.10;;;8.10;99.90;;;;;;5094575;28;20196;-60
2021/04/05 10:10:47;;;;;;;16.08;8.85;;;8.10;99.90;;;;;;5092629;28;20434;-60
2021/04/05 10:13:14;;;;;;;1.60;0.30;;;8.00;99.90;;;;;;5095634;28;20176;-61
2021/04/05 10:15:43;;;;;;;11.13;6.60;;;8.10;99.90;;;;;;5070079;28;20180;-61
2021/04/05 10:18:12;;;;;;;12.45;5.97;;;8.10;99.90;;;;;;5085443;28;20573;-61
2021/04/05 10:20:39;;;;;;;2.28;0.63;;;8.00;99.90;;;;;;5084075;28;20181;-61
2021/04/05 10:23:07;;;;;;;18.00;5.82;;;8.00;99.90;;;;;;5081119;28;20188;-60
2021/04/05 10:25:35;;;;;;;12.48;6.03;;;8.00;99.90;;;;;;5078845;28;20234;-62
2021/04/05 10:28:03;;;;;;;9.45;5.60;;;8.00;99.90;;;;;;5093026;28;20971;-59
2021/04/05 10:30:39;;;;;;;15.45;10.38;;;8.00;99.90;;;;;;5077378;28;20188;-59
2021/04/05 10:33:15;;;;;;;7.63;3.97;;;8.00;99.90;;;;;;5079010;28;20661;-59
2021/04/05 10:35:46;;;;;;;15.75;10.07;;;8.00;99.90;;;;;;5080097;28;20181;-59
2021/04/05 10:38:13;;;;;;;1.50;0.20;;;8.00;99.90;;;;;;5076104;28;20201;-61
2021/04/05 10:40:39;;;;;;;6.55;3.55;;;8.00;99.90;;;;;;5084689;28;20222;-61
2021/04/05 10:43:11;;;;;;;19.52;11.40;;;8.00;99.90;;;;;;5090134;28;20557;-61
2021/04/05 10:45:39;;;;;;;8.57;5.07;;;8.00;99.90;;;;;;5091860;28;20671;-60
2021/04/05 10:48:06;;;;;;;2.03;0.93;;;8.00;99.90;;;;;;5089283;28;20212;-61
2021/04/05 10:50:36;;;;;;;13.45;7.53;;;8.00;99.90;;;;;;5075479;28;20587;-59
2021/04/05 10:53:13;;;;;;;3.80;1.93;;;8.00;99.90;;;;;;5079778;28;20246;-59
2021/04/05 10:55:44;;;;;;;10.13;6.40;;;8.00;99.90;;;;;;5084186;28;20426;-59
2021/04/05 10:58:15;;;;;;;12.75;9.20;;;8.00;99.90;;;;;;5071662;28;20220;-59
2021/04/05 11:00:44;;;;;;;10.18;7.65;;;8.00;99.90;;;;;;5067726;28;20192;-60
2021/04/05 11:03:19;;;;;;;14.63;7.80;;;8.00;99.90;;;;;;5088350;28;20233;-60
2021/04/05 11:05:49;;;;;;;10.02;5.68;;;8.00;99.90;;;;;;5051809;28;20354;-59
2021/04/05 11:08:19;;;;;;;8.52;6.15;;;8.00;99.90;;;;;;5076747;28;20215;-59
2021/04/05 11:10:46;;;;;;;16.27;10.70;;;8.00;99.90;;;;;;5080452;28;20180;-60
2021/04/05 11:13:14;;;;;;;4.97;3.30;;;7.90;99.90;;;;;;5074224;28;20352;-59
2021/04/05 11:15:41;;;;;;;6.57;4.13;;;7.90;99.90;;;;;;5084815;28;20250;-59
2021/04/05 11:18:10;;;;;;;12.38;9.30;;;7.90;99.90;;;;;;5081978;28;20235;-61
2021/04/05 11:20:38;;;;;;;9.70;6.30;;;7.80;99.90;;;;;;5075862;28;20180;-59
2021/04/05 11:23:08;;;;;;;6.90;3.15;;;7.80;99.90;;;;;;5083902;28;20271;-60
2021/04/05 11:25:43;;;;;;;8.00;5.10;;;7.70;99.90;;;;;;5071933;28;20699;-59
2021/04/05 11:28:15;;;;;;;1.50;0.20;;;7.70;99.90;;;;;;5074182;28;20212;-59
2021/04/05 11:30:42;;;;;;;13.00;7.28;;;7.60;99.90;;;;;;5072990;28;20179;-59
2021/04/05 11:33:10;;;;;;;10.77;6.50;;;7.70;99.90;;;;;;5065331;28;20172;-60
2021/04/05 11:35:37;;;;;;;4.28;2.30;;;7.60;99.90;;;;;;5073170;28;20196;-59
2021/04/05 11:38:07;;;;;;;11.95;6.45;;;7.50;99.90;;;;;;5076252;28;20204;-59
2021/04/05 11:40:35;;;;;;;14.75;7.50;;;7.40;99.90;;;;;;5071496;28;20659;-60
2021/04/05 11:43:02;;;;;;;4.03;2.25;;;7.30;99.90;;;;;;5074013;28;20288;-60
2021/04/05 11:45:40;;;;;;;8.48;6.05;;;7.20;99.90;;;;;;5076698;28;20204;-60
2021/04/05 11:48:21;;;;;;;17.98;8.90;;;7.10;99.90;;;;;;5069325;28;20330;-60
2021/04/05 11:50:48;;;;;;;6.25;3.85;;;6.90;99.90;;;;;;5083541;28;20176;-63
2021/04/05 11:53:33;;;;;;;1.60;0.20;;;6.80;99.90;;;;;;5073292;28;20192;-60
2021/04/05 11:56:15;;;;;;;1.77;0.82;;;6.70;99.90;;;;;;5068296;28;20274;-59
2021/04/05 11:59:11;;;;;;;6.05;3.08;;;6.70;99.90;;;;;;5078861;28;20670;-59
2021/04/05 12:01:45;;;;;;;11.95;5.90;;;6.60;99.90;;;;;;5083961;28;20181;-59
2021/04/05 12:04:19;;;;;;;1.67;0.20;;;6.50;99.90;;;;;;5072195;28;20180;-58
2021/04/05 12:06:52;;;;;;;6.80;4.35;;;6.50;99.90;;;;;;5073022;28;20216;-59
2021/04/05 12:09:32;;;;;;;2.75;1.17;;;6.50;99.90;;;;;;5083393;28;20237;-58
2021/04/05 12:12:03;;;;;;;12.30;7.65;;;6.60;99.90;;;;;;5070163;28;20203;-59
2021/04/05 12:14:30;;;;;;;9.48;4.15;;;6.50;99.90;;;;;;5077552;28;20180;-58
2021/04/05 12:16:58;;;;;;;12.25;6.63;;;6.60;99.90;;;;;;5080890;28;20207;-59
2021/04/05 12:19:34;;;;;;;11.05;7.03;;;6.50;99.90;;;;;;5069055;28;20674;-59
2021/04/05 12:22:02;;;;;;;3.22;1.40;;;6.50;99.90;;;;;;5080179;28;20282;-59
2021/04/05 12:24:31;;;;;;;8.63;4.63;;;6.40;99.90;;;;;;5081022;28;20176;-58
2021/04/05 12:27:05;;;;;;;6.05;2.75;;;6.30;99.90;;;;;;5073444;28;20649;-59
2021/04/05 12:29:32;;;;;;;1.73;0.20;;;6.40;99.90;;;;;;5080005;28;20195;-59
2021/04/05 12:31:59;;;;;;;4.00;1.88;;;6.30;99.90;;;;;;5077171;28;20176;-58
2021/04/05 12:34:34;;;;;;;3.03;1.23;;;6.30;99.90;;;;;;5055163;28;20271;-58
2021/04/05 12:37:02;;;;;;;1.70;0.20;;;6.30;99.90;;;;;;5082599;28;20195;-58
2021/04/05 12:39:31;;;;;;;8.00;3.75;;;6.30;99.90;;;;;;5075119;28;20226;-60
2021/04/05 12:41:57;;;;;;;5.70;2.70;;;6.40;99.90;;;;;;5077889;28;20184;-59
2021/04/05 12:44:31;;;;;;;4.65;1.08;;;6.30;99.90;;;;;;5077702;28;20666;-59
2021/04/05 12:47:00;;;;;;;1.90;0.40;;;6.20;99.90;;;;;;5067803;28;20209;-59
2021/04/05 12:49:28;;;;;;;3.33;1.60;;;6.00;99.90;;;;;;5073170;28;20234;-59
2021/04/05 12:52:06;;;;;;;1.80;0.30;;;6.00;99.90;;;;;;5083260;28;20646;-59
2021/04/05 12:54:36;;;;;;;2.00;0.57;;;5.90;99.90;;;;;;5072471;28;20215;-59
2021/04/05 12:57:04;;;;;;;1.90;0.50;;;5.80;99.90;;;;;;5078031;28;20192;-59
2021/04/05 12:59:34;;;;;;;2.60;1.00;;;5.70;99.90;;;;;;5073164;28;20200;-59
2021/04/05 13:02:15;;;;;;;4.25;0.65;;;5.70;99.90;;;;;;5067652;28;20191;-59
2021/04/05 13:04:50;;;;;;;1.90;0.50;;;5.60;99.90;;;;;;5086009;28;20184;-59
2021/04/05 13:07:19;;;;;;;1.70;0.28;;;5.30;99.90;;;;;;5077054;28;20578;-59
2021/04/05 13:09:56;;;;;;;1.70;0.20;;;5.30;99.90;;;;;;5074154;28;20219;-59
2021/04/05 13:12:52;;;;;;;1.70;0.20;;;5.20;99.90;;;;;;5084667;28;20193;-59
2021/04/05 13:15:20;;;;;;;1.70;0.20;;;5.20;99.90;;;;;;5073849;28;20520;-59
2021/04/05 13:17:50;;;;;;;1.70;0.20;;;5.20;99.90;;;;;;5072310;28;20742;-59
2021/04/05 13:20:21;;;;;;;2.00;0.40;;;5.00;99.90;;;;;;5084617;28;20196;-59
2021/04/05 13:22:56;;;;;;;2.78;1.13;;;5.00;99.90;;;;;;5047436;28;20234;-59
2021/04/05 13:25:33;;;;;;;1.77;0.28;;;5.00;99.90;;;;;;5068513;28;20205;-59
2021/04/05 13:28:01;;;;;;;2.00;0.50;;;5.00;99.90;;;;;;5078113;28;20196;-59
2021/04/05 13:30:31;;;;;;;1.80;0.40;;;4.80;99.90;;;;;;5068635;28;20188;-59
2021/04/05 13:33:00;;;;;;;3.10;0.82;;;4.70;99.90;;;;;;5076543;28;20232;-59